Terminal Aerodrome Forecast
Issued by NWS

Current Version | Previous Version | Text Only | Print | Product List | Glossary Off
Versions: 1 2 3 4 5 6 7 8 9 10 11 12 13 14 15 16 17 18 19 20 21

000
FTUS41 KILN 282300
TAFLUK
TAF
KLUK 282331Z 2900/2924 VRB03KT P6SM BKN060
     FM290300 00000KT P6SM SCT060
     FM290700 00000KT 1SM BR SCT060
     FM291300 34005KT P6SM SCT050=

USA.gov is the U.S. government's official web portal to all federal, state and local government web resources and services.